createdAt,value
2023-02-15T00:02:26.494Z,0.20
2023-02-15T00:04:54.506Z,0.20
2023-02-15T00:07:21.297Z,0.20
2023-02-15T00:09:48.316Z,0.20
2023-02-15T00:12:16.069Z,0.10
2023-02-15T00:14:43.150Z,0.10
2023-02-15T00:17:10.082Z,0.00
2023-02-15T00:19:37.000Z,0.00
2023-02-15T00:22:03.626Z,0.00
2023-02-15T00:24:30.337Z,0.10
2023-02-15T00:26:57.051Z,0.10
2023-02-15T00:29:23.996Z,0.10
2023-02-15T00:31:50.738Z,0.20
2023-02-15T00:34:23.272Z,0.20
2023-02-15T00:36:50.741Z,0.20
2023-02-15T00:39:18.143Z,0.20
2023-02-15T00:41:45.855Z,0.20
2023-02-15T00:44:13.369Z,0.20
2023-02-15T00:46:40.371Z,0.10
2023-02-15T00:49:09.685Z,0.10
2023-02-15T00:51:36.792Z,0.00
2023-02-15T00:54:03.543Z,0.00
2023-02-15T00:56:30.190Z,-0.10
2023-02-15T00:58:57.061Z,-0.20
2023-02-15T01:01:24.472Z,-0.20
2023-02-15T01:03:51.660Z,-0.20
2023-02-15T01:06:18.408Z,-0.20
2023-02-15T01:08:46.415Z,-0.30
2023-02-15T01:11:22.673Z,-0.30
2023-02-15T01:13:52.840Z,-0.30
2023-02-15T01:16:19.961Z,-0.30
2023-02-15T01:18:46.909Z,-0.40
2023-02-15T01:21:17.737Z,-0.40
2023-02-15T01:23:44.941Z,-0.40
2023-02-15T01:26:13.610Z,-0.50
2023-02-15T01:28:40.618Z,-0.50
2023-02-15T01:31:09.841Z,-0.60
2023-02-15T01:33:38.252Z,-0.60
2023-02-15T01:36:05.658Z,-0.60
2023-02-15T01:38:33.050Z,-0.60
2023-02-15T01:41:19.745Z,-0.60
2023-02-15T01:43:49.714Z,-0.60
2023-02-15T01:46:21.364Z,-0.60
2023-02-15T01:48:54.752Z,-0.50
2023-02-15T01:51:24.608Z,-0.50
2023-02-15T01:53:58.243Z,-0.50
2023-02-15T01:56:29.342Z,-0.40
2023-02-15T01:58:59.853Z,-0.40
2023-02-15T02:01:28.005Z,-0.40
2023-02-15T02:04:13.053Z,-0.50
2023-02-15T02:06:40.552Z,-0.50
2023-02-15T02:09:07.394Z,-0.50
2023-02-15T02:11:34.949Z,-0.50
2023-02-15T02:14:01.838Z,-0.50
2023-02-15T02:16:50.443Z,-0.60
2023-02-15T02:19:20.203Z,-0.60
2023-02-15T02:22:07.784Z,-0.60
2023-02-15T02:25:05.325Z,-0.60
2023-02-15T02:27:50.373Z,-0.60
2023-02-15T02:30:49.959Z,-0.70
2023-02-15T02:33:40.964Z,-0.70
2023-02-15T02:36:33.167Z,-0.70
2023-02-15T02:39:14.541Z,-0.70
2023-02-15T02:42:06.736Z,-0.70
2023-02-15T02:45:06.503Z,-0.70
2023-02-15T02:47:57.628Z,-0.80
2023-02-15T02:50:29.613Z,-0.70
2023-02-15T02:52:57.908Z,-0.80
2023-02-15T02:55:50.808Z,-0.80
2023-02-15T02:58:25.223Z,-0.90
2023-02-15T03:01:02.517Z,-0.90
2023-02-15T03:03:35.281Z,-0.90
2023-02-15T03:06:07.604Z,-0.80
2023-02-15T03:08:39.219Z,-0.80
2023-02-15T03:11:06.130Z,-0.80
2023-02-15T03:13:33.794Z,-0.70
2023-02-15T03:16:21.417Z,-0.70
2023-02-15T03:18:58.791Z,-0.70
2023-02-15T03:21:32.911Z,-0.70
2023-02-15T03:24:07.545Z,-0.80
2023-02-15T03:26:35.512Z,-0.80
2023-02-15T03:29:04.925Z,-0.80
2023-02-15T03:31:35.707Z,-0.80
2023-02-15T03:34:05.860Z,-0.80
2023-02-15T03:36:48.090Z,-0.80
2023-02-15T03:39:23.592Z,-0.70
2023-02-15T03:42:09.712Z,-0.70
2023-02-15T03:44:53.725Z,-0.80
2023-02-15T03:47:26.086Z,-0.80
2023-02-15T03:49:58.974Z,-0.80
2023-02-15T03:52:29.456Z,-0.80
2023-02-15T03:54:56.488Z,-0.80
2023-02-15T03:57:48.078Z,-0.80
2023-02-15T04:00:41.363Z,-0.80
2023-02-15T04:03:17.039Z,-0.80
2023-02-15T04:05:45.769Z,-0.80
2023-02-15T04:08:13.026Z,-0.80
2023-02-15T04:10:56.001Z,-0.80
2023-02-15T04:13:30.572Z,-0.80
2023-02-15T04:16:07.953Z,-0.80
2023-02-15T04:18:57.198Z,-0.80
2023-02-15T04:21:44.328Z,-0.70
2023-02-15T04:24:30.221Z,-0.60
2023-02-15T04:26:57.478Z,-0.50
2023-02-15T04:29:25.934Z,-0.50
2023-02-15T04:31:54.256Z,-0.50
2023-02-15T04:34:21.375Z,-0.50
2023-02-15T04:36:48.064Z,-0.50
2023-02-15T04:39:15.632Z,-0.40
2023-02-15T04:41:42.723Z,-0.50
2023-02-15T04:44:09.663Z,-0.50
2023-02-15T04:46:36.698Z,-0.40
2023-02-15T04:49:03.747Z,-0.40
2023-02-15T04:51:30.644Z,-0.40
2023-02-15T04:53:57.647Z,-0.40
2023-02-15T04:56:24.461Z,-0.40
2023-02-15T04:58:51.092Z,-0.40
2023-02-15T05:01:18.687Z,-0.50
2023-02-15T05:03:45.423Z,-0.50
2023-02-15T05:06:12.029Z,-0.50
2023-02-15T05:08:38.708Z,-0.50
2023-02-15T05:11:05.315Z,-0.60
2023-02-15T05:13:32.021Z,-0.60
2023-02-15T05:15:58.670Z,-0.60
2023-02-15T05:18:25.358Z,-0.60
2023-02-15T05:20:52.007Z,-0.60
2023-02-15T05:23:18.737Z,-0.60
2023-02-15T05:26:07.663Z,-0.50
2023-02-15T05:28:34.414Z,-0.50
2023-02-15T05:31:27.545Z,-0.40
2023-02-15T05:33:54.382Z,-0.40
2023-02-15T05:36:20.975Z,-0.40
2023-02-15T05:38:47.647Z,-0.50
2023-02-15T05:41:14.345Z,-0.50
2023-02-15T05:43:41.251Z,-0.50
2023-02-15T05:46:08.477Z,-0.50
2023-02-15T05:48:35.975Z,-0.50
2023-02-15T05:51:14.861Z,-0.50
2023-02-15T05:53:41.720Z,-0.50
2023-02-15T05:56:12.853Z,-0.50
2023-02-15T05:58:41.541Z,-0.50
2023-02-15T06:01:11.941Z,-0.50
2023-02-15T06:03:39.122Z,-0.40
2023-02-15T06:06:07.226Z,-0.40
2023-02-15T06:08:34.692Z,-0.40
2023-02-15T06:11:01.874Z,-0.40
2023-02-15T06:13:28.962Z,-0.40
2023-02-15T06:15:55.742Z,-0.30
2023-02-15T06:18:22.510Z,-0.30
2023-02-15T06:20:49.425Z,-0.30
2023-02-15T06:23:16.414Z,-0.30
2023-02-15T06:25:45.096Z,-0.30
2023-02-15T06:28:11.834Z,-0.20
2023-02-15T06:30:38.397Z,-0.20
2023-02-15T06:33:05.304Z,-0.20
2023-02-15T06:35:31.951Z,-0.20
2023-02-15T06:37:58.602Z,-0.20
2023-02-15T06:40:25.301Z,-0.10
2023-02-15T06:42:51.890Z,-0.10
2023-02-15T06:45:18.570Z,-0.10
2023-02-15T06:47:45.154Z,-0.10
2023-02-15T06:50:12.134Z,-0.10
2023-02-15T06:52:38.914Z,-0.10
2023-02-15T06:55:05.817Z,-0.10
2023-02-15T06:57:34.015Z,-0.10
2023-02-15T07:00:00.859Z,-0.10
2023-02-15T07:02:27.730Z,0.00
2023-02-15T07:04:54.472Z,0.20
2023-02-15T07:07:21.261Z,0.40
2023-02-15T07:09:47.852Z,0.70
2023-02-15T07:12:33.324Z,1.10
2023-02-15T07:15:00.166Z,1.50
2023-02-15T07:17:36.886Z,2.10
2023-02-15T07:20:09.970Z,2.50
2023-02-15T07:22:37.674Z,2.90
2023-02-15T07:25:06.415Z,3.20
2023-02-15T07:27:33.425Z,3.50
2023-02-15T07:30:00.737Z,3.80
2023-02-15T07:32:32.420Z,4.10
2023-02-15T07:35:00.201Z,4.50
2023-02-15T07:37:27.760Z,4.80
2023-02-15T07:39:54.642Z,5.20
2023-02-15T07:42:22.808Z,5.60
2023-02-15T07:44:49.595Z,5.90
2023-02-15T07:47:16.297Z,6.10
2023-02-15T07:49:43.038Z,6.50
2023-02-15T07:52:09.621Z,6.80
2023-02-15T07:54:36.276Z,7.10
2023-02-15T07:57:03.271Z,7.30
2023-02-15T07:59:30.154Z,7.60
2023-02-15T08:01:57.425Z,7.90
2023-02-15T08:04:25.120Z,8.10
2023-02-15T08:06:54.936Z,8.40
2023-02-15T08:09:22.085Z,8.60
2023-02-15T08:11:49.678Z,8.80
2023-02-15T08:14:21.339Z,9.10
2023-02-15T08:16:49.682Z,9.30
2023-02-15T08:19:22.023Z,9.70
2023-02-15T08:21:51.616Z,10.10
2023-02-15T08:24:21.411Z,10.40
2023-02-15T08:26:49.198Z,10.60
2023-02-15T08:29:17.590Z,10.70
2023-02-15T08:31:44.867Z,10.80
2023-02-15T08:34:15.498Z,10.90
2023-02-15T08:36:42.808Z,11.00
2023-02-15T08:39:09.838Z,11.00
2023-02-15T08:41:38.384Z,11.10
2023-02-15T08:44:07.622Z,11.10
2023-02-15T08:46:36.977Z,10.90
2023-02-15T08:49:04.366Z,10.80
2023-02-15T08:51:34.107Z,10.90
2023-02-15T08:54:05.623Z,11.00
2023-02-15T08:56:38.020Z,11.10
2023-02-15T08:59:06.610Z,11.10
2023-02-15T09:01:35.223Z,11.30
2023-02-15T09:04:09.550Z,11.40
2023-02-15T09:06:38.389Z,11.50
2023-02-15T09:09:05.894Z,11.50
2023-02-15T09:11:37.282Z,11.60
2023-02-15T09:14:10.118Z,11.70
2023-02-15T09:16:38.941Z,11.80
2023-02-15T09:19:06.813Z,12.00
2023-02-15T09:21:36.427Z,12.20
2023-02-15T09:24:08.688Z,12.40
2023-02-15T09:26:38.451Z,12.50
2023-02-15T09:29:05.167Z,12.70
2023-02-15T09:31:45.013Z,12.80
2023-02-15T09:34:19.215Z,12.80
2023-02-15T09:36:47.547Z,12.90
2023-02-15T09:39:19.742Z,12.90
2023-02-15T09:42:23.353Z,13.30
2023-02-15T09:45:18.875Z,13.70
2023-02-15T09:48:10.962Z,14.00
2023-02-15T09:50:56.352Z,14.40
2023-02-15T09:53:41.147Z,14.60
2023-02-15T09:56:21.131Z,14.90
2023-02-15T09:59:04.884Z,14.80
2023-02-15T10:01:39.705Z,15.00
2023-02-15T10:04:50.338Z,15.20
2023-02-15T10:07:56.049Z,15.20
2023-02-15T10:10:35.972Z,15.40
2023-02-15T10:13:21.202Z,15.70
2023-02-15T10:15:54.494Z,15.90
2023-02-15T10:18:45.441Z,16.10
2023-02-15T10:21:22.048Z,16.20
2023-02-15T10:24:05.608Z,16.40
2023-02-15T10:26:49.552Z,16.60
2023-02-15T10:29:37.301Z,16.70
2023-02-15T10:32:30.327Z,16.80
2023-02-15T10:35:16.178Z,16.90
2023-02-15T10:37:47.943Z,16.90
2023-02-15T10:40:41.994Z,16.80
2023-02-15T10:43:35.038Z,16.70
2023-02-15T10:46:04.741Z,16.70
2023-02-15T10:49:00.744Z,16.70
2023-02-15T10:51:49.149Z,16.60
2023-02-15T10:54:35.591Z,16.70
2023-02-15T10:57:18.227Z,16.70
2023-02-15T11:00:00.450Z,16.70
2023-02-15T11:03:11.071Z,16.80
2023-02-15T11:06:05.674Z,16.90
2023-02-15T11:08:36.919Z,17.10
2023-02-15T11:11:09.284Z,17.20
2023-02-15T11:13:42.926Z,17.20
2023-02-15T11:16:18.985Z,17.30
2023-02-15T11:18:55.683Z,17.30
2023-02-15T11:21:24.090Z,17.20
2023-02-15T11:23:52.203Z,17.20
2023-02-15T11:26:24.740Z,17.20
2023-02-15T11:29:06.755Z,17.20
2023-02-15T11:31:47.159Z,17.20
2023-02-15T11:34:39.410Z,17.20
2023-02-15T11:37:13.250Z,17.30
2023-02-15T11:39:40.909Z,17.30
2023-02-15T11:42:14.930Z,17.40
2023-02-15T11:44:56.053Z,17.50
2023-02-15T11:47:22.724Z,17.50
2023-02-15T11:49:49.542Z,17.50
2023-02-15T11:52:17.993Z,17.50
2023-02-15T11:54:48.219Z,17.40
2023-02-15T11:57:29.207Z,17.50
2023-02-15T12:00:06.806Z,17.60
2023-02-15T12:02:38.235Z,17.60
2023-02-15T12:05:12.678Z,17.70
2023-02-15T12:07:47.133Z,17.70
2023-02-15T12:10:34.751Z,17.70
2023-02-15T12:13:16.314Z,17.70
2023-02-15T12:15:49.840Z,17.70
2023-02-15T12:18:34.317Z,17.60
2023-02-15T12:21:04.430Z,17.60
2023-02-15T12:23:32.974Z,17.40
2023-02-15T12:26:00.182Z,17.40
2023-02-15T12:28:31.167Z,17.20
2023-02-15T12:30:59.044Z,17.10
2023-02-15T12:33:46.461Z,17.10
2023-02-15T12:36:25.685Z,17.10
2023-02-15T12:39:31.742Z,17.10
2023-02-15T12:42:04.348Z,17.20
2023-02-15T12:44:36.754Z,17.20
2023-02-15T12:47:05.070Z,17.20
2023-02-15T12:49:33.078Z,17.20
2023-02-15T12:52:02.845Z,17.20
2023-02-15T12:54:41.767Z,17.20
2023-02-15T12:57:26.345Z,17.20
2023-02-15T13:00:28.481Z,17.20
2023-02-15T13:02:57.687Z,17.10
2023-02-15T13:05:39.557Z,17.10
2023-02-15T13:08:22.883Z,17.20
2023-02-15T13:11:00.888Z,17.20
2023-02-15T13:13:51.216Z,17.20
2023-02-15T13:16:27.713Z,17.30
2023-02-15T13:18:55.435Z,17.30
2023-02-15T13:21:27.253Z,17.40
2023-02-15T13:24:01.085Z,17.50
2023-02-15T13:26:31.808Z,17.60
2023-02-15T13:29:09.464Z,17.60
2023-02-15T13:31:37.109Z,17.70
2023-02-15T13:34:16.013Z,17.80
2023-02-15T13:36:51.697Z,17.90
2023-02-15T13:39:25.060Z,18.00
2023-02-15T13:42:06.440Z,18.10
2023-02-15T13:45:17.906Z,18.20
2023-02-15T13:48:01.280Z,18.40
2023-02-15T13:50:43.024Z,18.40
2023-02-15T13:53:36.373Z,18.50
2023-02-15T13:56:35.345Z,18.40
2023-02-15T13:59:16.303Z,18.30
2023-02-15T14:01:50.884Z,18.30
2023-02-15T14:04:20.439Z,18.30
2023-02-15T14:07:14.033Z,18.50
2023-02-15T14:10:14.267Z,18.50
2023-02-15T14:12:59.741Z,18.60
2023-02-15T14:15:52.306Z,18.60
2023-02-15T14:18:36.785Z,18.60
2023-02-15T14:21:19.892Z,18.50
2023-02-15T14:24:18.421Z,18.50
2023-02-15T14:26:47.820Z,18.60
2023-02-15T14:29:44.540Z,18.70
2023-02-15T14:32:27.262Z,18.70
2023-02-15T14:35:05.509Z,18.70
2023-02-15T14:38:05.479Z,18.70
2023-02-15T14:41:03.137Z,18.70
2023-02-15T14:43:33.434Z,18.70
2023-02-15T14:46:37.137Z,18.70
2023-02-15T14:49:14.035Z,18.70
2023-02-15T14:51:40.679Z,18.60
2023-02-15T14:54:11.370Z,18.70
2023-02-15T14:56:39.857Z,18.70
2023-02-15T14:59:21.566Z,18.60
2023-02-15T15:02:10.112Z,18.60
2023-02-15T15:04:45.477Z,18.40
2023-02-15T15:07:25.663Z,18.00
2023-02-15T15:10:46.667Z,17.70
2023-02-15T15:13:31.705Z,17.20
2023-02-15T15:16:24.632Z,16.70
2023-02-15T15:18:51.697Z,16.40
2023-02-15T15:21:49.660Z,16.00
2023-02-15T15:24:38.221Z,15.50
2023-02-15T15:27:44.124Z,14.80
2023-02-15T15:30:20.104Z,14.20
2023-02-15T15:32:56.108Z,13.50
2023-02-15T15:35:53.860Z,12.90
2023-02-15T15:38:45.439Z,12.20
2023-02-15T15:41:43.399Z,11.40
2023-02-15T15:44:28.699Z,11.20
2023-02-15T15:47:20.650Z,10.80
2023-02-15T15:49:47.608Z,10.60
2023-02-15T15:52:21.100Z,10.30
2023-02-15T15:54:53.364Z,10.00
2023-02-15T15:57:30.580Z,9.80
2023-02-15T16:00:00.498Z,9.60
2023-02-15T16:02:27.918Z,9.50
2023-02-15T16:04:54.761Z,9.30
2023-02-15T16:07:27.431Z,9.20
2023-02-15T16:10:00.706Z,9.10
2023-02-15T16:12:34.900Z,8.90
2023-02-15T16:15:24.845Z,8.80
2023-02-15T16:17:57.590Z,8.60
2023-02-15T16:20:34.709Z,8.50
2023-02-15T16:23:35.631Z,8.40
2023-02-15T16:26:47.855Z,8.30
2023-02-15T16:29:26.986Z,8.20
2023-02-15T16:31:59.566Z,8.10
2023-02-15T16:34:28.904Z,8.00
2023-02-15T16:37:18.822Z,7.90
2023-02-15T16:39:48.796Z,7.80
2023-02-15T16:42:17.289Z,7.70
2023-02-15T16:44:46.123Z,7.60
2023-02-15T16:47:34.453Z,7.60
2023-02-15T16:50:04.182Z,7.50
2023-02-15T16:52:31.090Z,7.40
2023-02-15T16:54:58.930Z,7.40
2023-02-15T16:57:32.360Z,7.40
2023-02-15T17:00:05.812Z,7.30
2023-02-15T17:02:54.453Z,7.30
2023-02-15T17:05:21.710Z,7.20
2023-02-15T17:08:11.969Z,7.10
2023-02-15T17:10:44.176Z,7.10
2023-02-15T17:13:12.512Z,7.10
2023-02-15T17:15:44.919Z,7.10
2023-02-15T17:18:20.209Z,7.10
2023-02-15T17:20:48.543Z,7.00
2023-02-15T17:23:34.359Z,7.00
2023-02-15T17:26:11.347Z,6.90
2023-02-15T17:28:38.457Z,6.90
2023-02-15T17:31:09.249Z,6.90
2023-02-15T17:33:40.047Z,6.80
2023-02-15T17:36:22.694Z,6.80
2023-02-15T17:38:58.353Z,6.70
2023-02-15T17:41:29.992Z,6.60
2023-02-15T17:43:57.535Z,6.60
2023-02-15T17:46:25.502Z,6.50
2023-02-15T17:48:54.810Z,6.50
2023-02-15T17:51:22.376Z,6.40
2023-02-15T17:54:08.242Z,6.30
2023-02-15T17:56:36.563Z,6.30
2023-02-15T17:59:07.552Z,6.20
2023-02-15T18:02:08.309Z,6.00
2023-02-15T18:04:55.739Z,5.90
2023-02-15T18:07:41.917Z,5.70
2023-02-15T18:10:37.564Z,5.60
2023-02-15T18:13:04.570Z,5.50
2023-02-15T18:15:31.405Z,5.50
2023-02-15T18:17:58.158Z,5.40
2023-02-15T18:20:29.271Z,5.40
2023-02-15T18:22:56.011Z,5.40
2023-02-15T18:25:25.260Z,5.30
2023-02-15T18:27:54.849Z,5.30
2023-02-15T18:30:23.580Z,5.30
2023-02-15T18:32:53.933Z,5.20
2023-02-15T18:35:24.477Z,5.20
2023-02-15T18:37:53.217Z,5.10
2023-02-15T18:40:26.044Z,5.00
2023-02-15T18:42:52.993Z,5.00
2023-02-15T18:45:27.410Z,4.90
2023-02-15T18:47:55.103Z,4.80
2023-02-15T18:50:24.155Z,4.80
2023-02-15T18:52:51.544Z,4.80
2023-02-15T18:55:24.729Z,4.70
2023-02-15T18:57:54.688Z,4.70
2023-02-15T19:00:32.223Z,4.60
2023-02-15T19:03:00.342Z,4.60
2023-02-15T19:05:29.229Z,4.60
2023-02-15T19:07:58.414Z,4.60
2023-02-15T19:10:27.218Z,4.60
2023-02-15T19:12:56.014Z,4.50
2023-02-15T19:15:31.550Z,4.50
2023-02-15T19:17:58.209Z,4.50
2023-02-15T19:20:27.789Z,4.50
2023-02-15T19:22:56.375Z,4.40
2023-02-15T19:25:26.336Z,4.40
2023-02-15T19:27:54.048Z,4.30
2023-02-15T19:30:31.795Z,4.30
2023-02-15T19:32:59.809Z,4.20
2023-02-15T19:35:31.606Z,4.20
2023-02-15T19:38:01.344Z,4.10
2023-02-15T19:40:30.519Z,4.10
2023-02-15T19:42:57.627Z,4.00
2023-02-15T19:45:27.415Z,3.90
2023-02-15T19:47:55.085Z,3.90
2023-02-15T19:50:25.557Z,3.80
2023-02-15T19:52:52.667Z,3.70
2023-02-15T19:55:31.274Z,3.70
2023-02-15T19:57:59.149Z,3.70
2023-02-15T20:00:29.133Z,3.60
2023-02-15T20:02:57.824Z,3.60
2023-02-15T20:05:25.747Z,3.60
2023-02-15T20:07:53.471Z,3.50
2023-02-15T20:10:22.812Z,3.50
2023-02-15T20:12:50.333Z,3.40
2023-02-15T20:15:20.124Z,3.30
2023-02-15T20:17:47.227Z,3.30
2023-02-15T20:20:14.872Z,3.20
2023-02-15T20:22:42.981Z,3.20
2023-02-15T20:25:24.511Z,3.20
2023-02-15T20:27:51.307Z,3.10
2023-02-15T20:30:21.127Z,3.10
2023-02-15T20:32:47.990Z,3.10
2023-02-15T20:35:21.896Z,3.10
2023-02-15T20:37:52.464Z,3.20
2023-02-15T20:40:28.148Z,3.20
2023-02-15T20:42:55.309Z,3.20
2023-02-15T20:45:30.555Z,3.20
2023-02-15T20:47:58.121Z,3.20
2023-02-15T20:50:31.592Z,3.20
2023-02-15T20:53:00.166Z,3.30
2023-02-15T20:55:29.246Z,3.30
2023-02-15T20:57:56.899Z,3.30
2023-02-15T21:00:26.332Z,3.30
2023-02-15T21:02:56.901Z,3.40
2023-02-15T21:05:26.929Z,3.40
2023-02-15T21:07:54.286Z,3.40
2023-02-15T21:10:25.909Z,3.40
2023-02-15T21:12:53.436Z,3.40
2023-02-15T21:15:36.158Z,3.40
2023-02-15T21:18:06.205Z,3.40
2023-02-15T21:20:34.568Z,3.40
2023-02-15T21:23:04.621Z,3.40
2023-02-15T21:25:38.377Z,3.40
2023-02-15T21:28:08.331Z,3.30
2023-02-15T21:30:35.166Z,3.20
2023-02-15T21:33:01.886Z,3.10
2023-02-15T21:35:28.855Z,3.10
2023-02-15T21:37:55.964Z,3.00
2023-02-15T21:40:26.660Z,3.00
2023-02-15T21:43:12.168Z,2.90
2023-02-15T21:45:57.662Z,2.80
2023-02-15T21:48:24.318Z,2.80
2023-02-15T21:51:10.052Z,2.80
2023-02-15T21:53:45.777Z,2.70
2023-02-15T21:56:18.930Z,2.80
2023-02-15T21:58:45.676Z,2.70
2023-02-15T22:01:20.705Z,2.80
2023-02-15T22:03:47.867Z,2.80
2023-02-15T22:06:14.724Z,2.80
2023-02-15T22:08:41.615Z,2.80
2023-02-15T22:11:13.765Z,2.80
2023-02-15T22:13:42.321Z,2.90
2023-02-15T22:16:17.129Z,3.00
2023-02-15T22:18:44.350Z,3.00
2023-02-15T22:21:11.573Z,3.00
2023-02-15T22:23:38.996Z,3.10
2023-02-15T22:26:15.278Z,3.20
2023-02-15T22:28:42.822Z,3.20
2023-02-15T22:31:18.644Z,3.20
2023-02-15T22:33:45.610Z,3.20
2023-02-15T22:36:20.027Z,3.20
2023-02-15T22:38:46.678Z,3.20
2023-02-15T22:41:13.816Z,3.10
2023-02-15T22:43:42.984Z,3.20
2023-02-15T22:46:24.339Z,3.30
2023-02-15T22:48:51.809Z,3.30
2023-02-15T22:51:21.959Z,3.30
2023-02-15T22:53:54.881Z,3.30
2023-02-15T22:56:38.815Z,3.30
2023-02-15T22:59:17.254Z,3.30
2023-02-15T23:01:44.159Z,3.30
2023-02-15T23:04:17.930Z,3.30
2023-02-15T23:06:44.883Z,3.30
2023-02-15T23:09:11.987Z,3.40
2023-02-15T23:11:39.299Z,3.40
2023-02-15T23:14:06.266Z,3.40
2023-02-15T23:16:34.599Z,3.40
2023-02-15T23:19:01.358Z,3.40
2023-02-15T23:21:33.152Z,3.40
2023-02-15T23:24:20.121Z,3.40
2023-02-15T23:26:48.282Z,3.30
2023-02-15T23:29:17.869Z,3.30
2023-02-15T23:31:47.092Z,3.20
2023-02-15T23:34:24.304Z,3.10
2023-02-15T23:36:51.052Z,3.10
2023-02-15T23:39:38.371Z,3.00
2023-02-15T23:42:11.982Z,3.00
2023-02-15T23:44:39.676Z,3.00
2023-02-15T23:47:14.579Z,2.90
2023-02-15T23:49:41.223Z,2.90
2023-02-15T23:52:10.436Z,2.80
2023-02-15T23:54:37.264Z,2.80
2023-02-15T23:57:04.406Z,2.80
2023-02-15T23:59:32.287Z,2.90
